Time;durP1;ratioP1;P1;durP2;ratioP2;P2;SDS_P1;SDS_P2;PMS_P1;PMS_P2;Temp;Humidity;BMP_temperature;BMP_pressure;BME280_temperature;BME280_humidity;BME280_pressure;Samples;Min_cycle;Max_cycle;Signal;HPM_P1;HPM_P2
2023/06/27 00:00:52;;;;;;;7.28;1.60;;;;;;;28.72;35.84;102073.22;5055304;28;20032;-73
2023/06/27 00:03:18;;;;;;;8.05;1.60;;;;;;;29.11;34.58;102076.81;5055247;28;20520;-73
2023/06/27 00:05:43;;;;;;;6.00;1.40;;;;;;;29.33;34.75;102072.66;5054190;28;20044;-73
2023/06/27 00:08:09;;;;;;;8.73;2.40;;;;;;;29.31;34.23;102069.22;5050969;28;20028;-72
2023/06/27 00:10:37;;;;;;;6.75;1.50;;;;;;;28.93;35.36;102070.88;5035649;28;20507;-73
2023/06/27 00:13:03;;;;;;;5.90;1.77;;;;;;;27.39;37.97;102079.03;5072552;28;20020;-73
2023/06/27 00:15:34;;;;;;;6.88;2.05;;;;;;;28.47;36.13;102080.22;5073738;28;20025;-73
2023/06/27 00:17:59;;;;;;;5.50;1.48;;;;;;;28.51;36.50;102076.34;5037894;28;20540;-72
2023/06/27 00:20:25;;;;;;;6.15;1.48;;;;;;;29.25;34.85;102066.00;5045688;28;20090;-74
2023/06/27 00:22:50;;;;;;;2.42;1.27;;;;;;;28.96;36.02;102064.44;5034427;28;20025;-72
2023/06/27 00:25:16;;;;;;;6.05;1.60;;;;;;;28.65;35.96;102077.28;5034811;28;20025;-72
2023/06/27 00:27:42;;;;;;;4.47;1.40;;;;;;;29.45;35.04;102071.78;5050639;28;20099;-75
2023/06/27 00:30:08;;;;;;;5.18;1.50;;;;;;;29.21;35.03;102069.84;5057174;28;20500;-72
2023/06/27 00:32:33;;;;;;;7.25;1.88;;;;;;;30.04;34.16;102067.59;5034535;28;20325;-72
2023/06/27 00:34:59;;;;;;;6.70;1.42;;;;;;;30.21;33.61;102075.31;5050201;28;20039;-72
2023/06/27 00:37:24;;;;;;;7.68;1.67;;;;;;;30.15;34.09;102070.38;5034058;28;20063;-72
2023/06/27 00:39:49;;;;;;;9.52;1.58;;;;;;;29.66;34.18;102068.53;5035936;28;20332;-72
2023/06/27 00:42:15;;;;;;;12.90;1.52;;;;;;;29.41;34.31;102078.34;5059440;28;20485;-72
2023/06/27 00:44:40;;;;;;;3.33;1.35;;;;;;;29.08;35.62;102075.19;5070620;28;20094;-73
2023/06/27 00:47:06;;;;;;;11.57;2.05;;;;;;;29.60;34.46;102076.06;5069168;28;20032;-72
2023/06/27 00:49:32;;;;;;;9.48;2.92;;;;;;;29.34;34.63;102069.00;5034471;28;20048;-72
2023/06/27 00:51:59;;;;;;;5.20;1.40;;;;;;;29.73;33.78;102075.19;5042212;28;20021;-72
2023/06/27 00:54:25;;;;;;;6.80;1.70;;;;;;;29.66;34.26;102073.91;5037929;28;20029;-72
2023/06/27 00:56:55;;;;;;;5.90;1.63;;;;;;;29.99;33.48;102067.06;5048091;28;20492;-72
2023/06/27 00:59:20;;;;;;;7.50;1.83;;;;;;;29.76;34.32;102070.44;5071947;28;20123;-72
2023/06/27 01:01:46;;;;;;;9.55;1.30;;;;;;;29.21;35.27;102072.53;5071807;28;20559;-73
2023/06/27 01:04:12;;;;;;;4.40;1.92;;;;;;;29.68;34.72;102074.69;5055573;28;20443;-72
2023/06/27 01:07:07;;;;;;;4.03;1.65;;;;;;;29.77;34.85;102077.56;5053817;28;20024;-72
2023/06/27 01:09:55;;;;;;;6.78;1.77;;;;;;;29.48;34.67;102074.25;5068929;28;20020;-72
2023/06/27 01:12:35;;;;;;;9.32;2.10;;;;;;;28.35;36.76;102076.50;5055263;28;20029;-72
2023/06/27 01:15:03;;;;;;;7.35;1.80;;;;;;;28.66;36.07;102079.00;5055160;28;20028;-72
2023/06/27 01:17:32;;;;;;;4.68;1.85;;;;;;;28.12;37.35;102077.16;5074698;28;20054;-72
2023/06/27 01:20:00;;;;;;;8.77;1.65;;;;;;;28.79;35.93;102069.13;5058947;28;20028;-72
2023/06/27 01:22:44;;;;;;;6.22;1.45;;;;;;;28.12;36.94;102082.53;5053738;28;20055;-73
2023/06/27 01:25:11;;;;;;;5.18;1.60;;;;;;;28.61;36.66;102073.91;5054649;28;20020;-72
2023/06/27 01:27:37;;;;;;;7.28;1.65;;;;;;;28.89;35.63;102077.44;5053794;28;20115;-72
2023/06/27 01:30:03;;;;;;;6.55;1.83;;;;;;;28.66;36.46;102074.50;5071321;28;20104;-72
2023/06/27 01:32:42;;;;;;;5.40;1.73;;;;;;;29.44;35.34;102070.94;5086514;28;20526;-72
2023/06/27 01:35:38;;;;;;;13.63;2.00;;;;;;;28.88;36.22;102068.50;5063219;28;20674;-73
2023/06/27 01:38:11;;;;;;;10.13;1.92;;;;;;;29.10;35.50;102062.50;5076795;28;20128;-72
2023/06/27 01:40:38;;;;;;;6.55;1.27;;;;;;;29.18;35.46;102056.59;5073407;28;20541;-72
2023/06/27 01:43:09;;;;;;;5.82;1.23;;;;;;;29.39;35.09;102061.47;5072690;28;20060;-72
2023/06/27 01:45:39;;;;;;;7.40;2.05;;;;;;;29.86;34.24;102065.28;5072226;28;20036;-72
2023/06/27 01:48:06;;;;;;;5.28;1.50;;;;;;;29.56;35.18;102061.09;5054560;28;20024;-72
2023/06/27 01:50:32;;;;;;;3.78;1.45;;;;;;;29.72;34.65;102062.72;5053620;28;20028;-72
2023/06/27 01:52:57;;;;;;;5.05;1.50;;;;;;;29.40;34.95;102064.06;5064003;28;20101;-72
2023/06/27 01:55:23;;;;;;;2.97;1.42;;;;;;;29.57;34.79;102067.38;5056597;28;20042;-71
2023/06/27 01:57:50;;;;;;;7.75;1.80;;;;;;;29.59;34.63;102063.59;5041970;28;20111;-72
2023/06/27 02:00:16;;;;;;;8.52;2.00;;;;;;;29.94;33.90;102062.88;5058716;28;20021;-72
2023/06/27 02:02:42;;;;;;;5.47;1.52;;;;;;;29.54;34.99;102065.75;5045557;28;20070;-73
2023/06/27 02:05:08;;;;;;;7.93;1.85;;;;;;;28.75;36.32;102062.25;5052039;28;20036;-72
2023/06/27 02:07:33;;;;;;;7.65;1.40;;;;;;;29.73;34.71;102064.41;5032592;28;20103;-72
2023/06/27 02:09:59;;;;;;;5.38;1.67;;;;;;;29.56;34.75;102062.94;5031693;28;20074;-72
2023/06/27 02:12:24;;;;;;;4.63;1.80;;;;;;;29.64;34.97;102067.78;5036180;28;20486;-72
2023/06/27 02:14:49;;;;;;;3.83;1.67;;;;;;;30.00;34.13;102063.41;5032971;28;20086;-72
2023/06/27 02:17:15;;;;;;;5.15;2.03;;;;;;;29.82;34.90;102058.38;5050403;28;20040;-72
2023/06/27 02:19:40;;;;;;;7.90;2.45;;;;;;;29.60;35.33;102049.13;5033268;28;20033;-71
2023/06/27 02:22:06;;;;;;;4.53;1.60;;;;;;;29.79;34.93;102048.66;5032257;28;20029;-71
2023/06/27 02:24:31;;;;;;;5.10;1.90;;;;;;;29.81;34.76;102045.84;5049780;28;20123;-71
2023/06/27 02:26:56;;;;;;;9.43;2.08;;;;;;;28.86;36.03;102043.53;5053077;28;20103;-72
2023/06/27 02:29:22;;;;;;;9.05;1.65;;;;;;;29.32;36.04;102038.63;5056039;28;20048;-72
2023/06/27 02:31:47;;;;;;;8.00;1.80;;;;;;;29.05;36.24;102039.56;5049954;28;20053;-73
2023/06/27 02:34:13;;;;;;;8.40;1.77;;;;;;;28.74;36.39;102026.44;5049653;28;20123;-72
2023/06/27 02:36:38;;;;;;;7.95;1.58;;;;;;;29.34;35.67;102034.00;5052571;28;20472;-72
2023/06/27 02:39:04;;;;;;;4.40;1.83;;;;;;;29.63;35.06;102031.06;5058762;28;20048;-72
2023/06/27 02:41:29;;;;;;;7.28;2.15;;;;;;;30.07;34.37;102040.41;5048623;28;20020;-72
2023/06/27 02:43:54;;;;;;;8.13;1.60;;;;;;;29.43;35.34;102041.44;5045840;28;20028;-73
2023/06/27 02:46:20;;;;;;;10.73;1.67;;;;;;;29.61;35.44;102045.47;5051976;28;20017;-72
2023/06/27 02:48:45;;;;;;;7.05;1.40;;;;;;;29.30;35.59;102044.13;5045914;28;20040;-72
2023/06/27 02:51:11;;;;;;;6.57;1.55;;;;;;;29.43;35.30;102052.19;5032256;28;20021;-72
2023/06/27 02:53:36;;;;;;;7.10;1.58;;;;;;;29.19;35.86;102042.16;5031462;28;20127;-73
2023/06/27 02:56:03;;;;;;;10.15;1.90;;;;;;;29.01;36.08;102047.00;5046483;28;20095;-72
2023/06/27 02:58:32;;;;;;;8.35;2.00;;;;;;;29.07;35.48;102051.06;5066165;28;20099;-72
2023/06/27 03:01:06;;;;;;;4.00;1.83;;;;;;;28.23;37.21;102062.06;5032452;28;20021;-72
2023/06/27 03:03:32;;;;;;;7.28;1.80;;;;;;;28.36;37.40;102061.25;5058327;28;20036;-72
2023/06/27 03:06:02;;;;;;;6.88;1.77;;;;;;;28.66;37.32;102052.09;5051884;28;20031;-72
2023/06/27 03:08:29;;;;;;;7.28;2.03;;;;;;;28.31;37.49;102058.00;5034169;28;21684;-72
2023/06/27 03:10:56;;;;;;;4.65;1.55;;;;;;;28.57;36.78;102057.09;5032537;28;20487;-72
2023/06/27 03:13:21;;;;;;;4.68;1.52;;;;;;;28.66;37.03;102057.47;5054697;28;20020;-72
2023/06/27 03:15:47;;;;;;;7.28;2.05;;;;;;;28.41;37.61;102069.84;5061916;28;20029;-72
2023/06/27 03:18:12;;;;;;;8.27;1.92;;;;;;;27.95;38.42;102064.81;5058377;28;20090;-71
2023/06/27 03:20:38;;;;;;;5.38;1.75;;;;;;;27.86;37.91;102069.81;5049990;28;20021;-72
2023/06/27 03:23:03;;;;;;;4.55;2.10;;;;;;;28.44;37.44;102069.66;5044646;28;20538;-72
2023/06/27 03:25:28;;;;;;;5.40;1.80;;;;;;;28.21;37.85;102066.66;5056857;28;20016;-72
2023/06/27 03:27:54;;;;;;;7.68;1.83;;;;;;;27.54;39.00;102071.84;5055610;28;20025;-72
2023/06/27 03:30:19;;;;;;;6.50;1.95;;;;;;;27.80;38.49;102064.81;5047017;28;20040;-72
2023/06/27 03:32:45;;;;;;;9.35;2.10;;;;;;;27.92;38.22;102066.72;5035159;28;20131;-72
2023/06/27 03:35:10;;;;;;;6.07;1.88;;;;;;;28.04;38.37;102066.91;5072472;28;20265;-72
2023/06/27 03:37:36;;;;;;;11.57;2.53;;;;;;;27.90;38.32;102071.34;5039262;28;20067;-72
2023/06/27 03:40:02;;;;;;;9.82;2.10;;;;;;;27.59;39.30;102073.25;5056343;28;20396;-72
2023/06/27 03:42:28;;;;;;;5.43;1.75;;;;;;;27.52;39.55;102071.94;5053720;28;20108;-72
2023/06/27 03:44:53;;;;;;;6.55;2.28;;;;;;;27.98;38.45;102067.28;5035543;28;20684;-72
2023/06/27 03:47:19;;;;;;;7.72;2.10;;;;;;;27.60;38.79;102068.75;5046885;28;20032;-73
2023/06/27 03:49:44;;;;;;;7.22;2.35;;;;;;;27.58;39.40;102068.00;5054919;28;20032;-72
2023/06/27 03:52:10;;;;;;;6.63;2.72;;;;;;;27.59;38.85;102067.91;5054917;28;20505;-71
2023/06/27 03:54:35;;;;;;;7.80;2.40;;;;;;;27.20;39.75;102064.03;5056742;28;20120;-72
2023/06/27 03:57:01;;;;;;;4.72;1.98;;;;;;;26.97;40.09;102070.78;5069680;28;20052;-72
2023/06/27 03:59:26;;;;;;;6.53;2.05;;;;;;;27.24;39.89;102062.88;5055944;28;20477;-72
2023/06/27 04:01:52;;;;;;;8.00;1.85;;;;;;;26.79;40.45;102069.19;5063894;28;20377;-72
2023/06/27 04:04:17;;;;;;;6.50;2.80;;;;;;;26.86;40.75;102074.13;5075189;28;20198;-73
2023/06/27 04:06:43;;;;;;;10.90;2.10;;;;;;;27.27;39.72;102072.53;5075372;28;20024;-73
2023/06/27 04:09:08;;;;;;;6.22;2.33;;;;;;;27.70;38.85;102075.28;5093139;28;20060;-72
2023/06/27 04:11:33;;;;;;;5.70;2.33;;;;;;;26.61;41.20;102073.78;5060825;28;20617;-73
2023/06/27 04:13:59;;;;;;;8.77;2.80;;;;;;;26.97;40.15;102073.47;5063322;28;20391;-72
2023/06/27 04:16:27;;;;;;;11.20;2.60;;;;;;;26.67;41.07;102073.44;5092934;28;20036;-72
2023/06/27 04:18:53;;;;;;;8.88;2.60;;;;;;;27.48;39.48;102075.78;5092522;28;20070;-72
2023/06/27 04:21:19;;;;;;;8.30;2.15;;;;;;;27.45;39.11;102075.97;5074538;28;20059;-72
2023/06/27 04:23:45;;;;;;;7.20;2.45;;;;;;;27.57;38.88;102075.19;5068649;28;20127;-72
2023/06/27 04:26:15;;;;;;;8.82;2.70;;;;;;;27.62;39.15;102071.38;5055640;28;20123;-73
2023/06/27 04:28:41;;;;;;;6.28;1.92;;;;;;;27.59;38.91;102078.63;5073572;28;20055;-72
2023/06/27 04:31:06;;;;;;;9.60;1.95;;;;;;;26.93;39.86;102088.03;5063750;28;20073;-72
2023/06/27 04:33:32;;;;;;;7.22;2.20;;;;;;;27.36;39.63;102081.91;5062912;28;20035;-71
2023/06/27 04:36:03;;;;;;;9.25;2.45;;;;;;;27.15;39.91;102089.38;5068019;28;20128;-72
2023/06/27 04:38:29;;;;;;;5.40;2.50;;;;;;;27.11;39.79;102083.38;5090917;28;20035;-72
2023/06/27 04:40:55;;;;;;;8.63;3.17;;;;;;;26.90;39.84;102081.03;5074207;28;20028;-71
2023/06/27 04:43:20;;;;;;;14.60;3.17;;;;;;;26.65;40.11;102083.38;5071884;28;20093;-72
2023/06/27 04:45:46;;;;;;;8.52;2.22;;;;;;;26.31;41.17;102086.22;5055230;28;20037;-72
2023/06/27 04:48:11;;;;;;;11.15;1.90;;;;;;;26.78;40.66;102092.47;5061204;28;20488;-72
2023/06/27 04:50:36;;;;;;;7.97;1.92;;;;;;;26.51;40.80;102090.41;5084602;28;20023;-72
2023/06/27 04:53:05;;;;;;;9.13;1.98;;;;;;;27.04;40.10;102087.38;5075888;28;20032;-73
2023/06/27 04:55:32;;;;;;;3.55;1.90;;;;;;;27.42;38.55;102081.50;5082538;28;20080;-72
2023/06/27 04:57:57;;;;;;;6.18;1.67;;;;;;;27.28;39.54;102081.47;5053653;28;20031;-72
2023/06/27 05:00:23;;;;;;;6.38;1.95;;;;;;;28.08;38.38;102084.53;5073031;28;20029;-71
2023/06/27 05:02:48;;;;;;;11.70;2.13;;;;;;;28.41;36.82;102088.66;5054269;28;20039;-72
2023/06/27 05:05:13;;;;;;;5.93;2.28;;;;;;;29.76;34.80;102088.47;5054149;28;20032;-72
2023/06/27 05:07:39;;;;;;;7.78;1.92;;;;;;;28.69;36.15;102094.94;5070124;28;20027;-72
2023/06/27 05:10:04;;;;;;;6.63;2.03;;;;;;;28.96;36.21;102083.25;5054770;28;20028;-73
2023/06/27 05:12:30;;;;;;;5.53;1.55;;;;;;;29.98;34.33;102084.22;5061707;28;20396;-72
2023/06/27 05:14:55;;;;;;;8.45;1.60;;;;;;;31.17;32.41;102084.28;5058027;28;20028;-73
2023/06/27 05:17:21;;;;;;;5.57;1.38;;;;;;;31.03;32.30;102081.81;5067532;28;20029;-72
2023/06/27 05:19:47;;;;;;;5.63;2.00;;;;;;;30.69;33.41;102084.38;5053760;28;20118;-72
2023/06/27 05:22:13;;;;;;;4.25;1.60;;;;;;;29.32;35.03;102092.47;5061623;28;20050;-72
2023/06/27 05:24:38;;;;;;;4.38;1.20;;;;;;;30.25;33.72;102084.91;5059753;28;20480;-73
2023/06/27 05:27:04;;;;;;;4.88;1.35;;;;;;;29.72;34.90;102084.25;5078205;28;20081;-72
2023/06/27 05:29:29;;;;;;;3.38;1.33;;;;;;;28.69;36.76;102087.72;5063804;28;20054;-72
2023/06/27 05:31:55;;;;;;;3.15;1.15;;;;;;;28.21;37.26;102096.22;5091874;28;20377;-72
2023/06/27 05:34:20;;;;;;;5.95;1.33;;;;;;;28.23;37.38;102091.63;5069992;28;20051;-73
2023/06/27 05:36:46;;;;;;;3.97;1.50;;;;;;;28.42;37.07;102102.00;5061472;28;20511;-72
2023/06/27 05:39:11;;;;;;;6.88;1.45;;;;;;;27.19;38.61;102102.56;5056383;28;20031;-70
2023/06/27 05:41:36;;;;;;;5.43;1.65;;;;;;;26.67;39.50;102094.91;5091635;28;20032;-71
2023/06/27 05:44:02;;;;;;;5.60;1.67;;;;;;;26.40;40.58;102106.25;5091277;28;20112;-72
2023/06/27 05:46:27;;;;;;;3.58;1.27;;;;;;;26.50;40.32;102103.91;5091656;28;20433;-71
2023/06/27 05:48:53;;;;;;;2.55;1.30;;;;;;;27.10;39.38;102103.09;5072374;28;20029;-72
2023/06/27 05:51:18;;;;;;;4.40;1.45;;;;;;;26.74;40.07;102090.94;5073434;28;20024;-72
2023/06/27 05:53:44;;;;;;;3.17;1.10;;;;;;;26.40;40.67;102098.22;5073491;28;20542;-72
2023/06/27 05:56:09;;;;;;;8.02;1.65;;;;;;;26.92;39.93;102095.19;5072826;28;20060;-72
2023/06/27 05:58:36;;;;;;;3.47;1.42;;;;;;;27.08;39.55;102091.63;5073284;28;20039;-73
2023/06/27 06:01:01;;;;;;;4.63;1.67;;;;;;;27.64;38.67;102101.66;5072798;28;20032;-73
2023/06/27 06:03:26;;;;;;;4.80;1.58;;;;;;;27.06;39.59;102091.69;5073956;28;20023;-73
2023/06/27 06:05:52;;;;;;;7.55;1.63;;;;;;;27.69;38.19;102096.88;5072750;28;20055;-72
2023/06/27 06:08:18;;;;;;;8.23;1.17;;;;;;;27.91;37.48;102099.91;5072689;28;20039;-73
2023/06/27 06:10:45;;;;;;;4.38;1.45;;;;;;;27.22;38.39;102099.66;5073072;28;20031;-72
2023/06/27 06:13:10;;;;;;;6.32;1.50;;;;;;;27.80;38.15;102110.47;5073207;28;20592;-72
2023/06/27 06:15:36;;;;;;;3.25;1.10;;;;;;;29.51;35.10;102110.88;5072061;28;20024;-73
2023/06/27 06:18:01;;;;;;;4.75;1.48;;;;;;;29.86;33.41;102108.41;5091265;28;20086;-73
2023/06/27 06:20:29;;;;;;;6.38;1.33;;;;;;;31.92;31.17;102112.56;5073237;28;20425;-73
2023/06/27 06:22:54;;;;;;;3.92;1.00;;;;;;;32.28;28.99;102113.25;5071942;28;20040;-73
2023/06/27 06:25:20;;;;;;;3.42;1.05;;;;;;;33.36;28.05;102108.72;5073579;28;20016;-74
2023/06/27 06:27:45;;;;;;;5.90;1.17;;;;;;;33.24;28.08;102110.63;5072397;28;20429;-73
2023/06/27 06:30:11;;;;;;;1.90;1.00;;;;;;;34.46;26.16;102123.38;5072443;28;20035;-73
2023/06/27 06:32:36;;;;;;;4.78;1.73;;;;;;;33.26;27.92;102116.78;5072668;28;20145;-73
2023/06/27 06:35:03;;;;;;;4.78;1.15;;;;;;;34.14;25.73;102110.84;5073246;28;20471;-74
2023/06/27 06:37:29;;;;;;;3.05;1.10;;;;;;;34.38;25.08;102115.06;5072455;28;20031;-72
2023/06/27 06:39:54;;;;;;;2.55;1.00;;;;;;;34.39;25.31;102112.22;5072529;28;20447;-73
2023/06/27 06:42:20;;;;;;;2.60;0.98;;;;;;;35.30;24.82;102109.13;5072835;28;20106;-72
2023/06/27 06:44:47;;;;;;;2.10;0.60;;;;;;;35.32;22.89;102112.59;5071754;28;20040;-73
2023/06/27 06:47:13;;;;;;;0.68;0.60;;;;;;;35.96;22.97;102117.34;5073079;28;20024;-73
2023/06/27 06:49:38;;;;;;;1.05;0.50;;;;;;;34.19;23.15;102124.84;5072077;28;20023;-73
2023/06/27 06:52:04;;;;;;;7.82;0.80;;;;;;;36.32;21.82;102131.84;5090072;28;20032;-74
2023/06/27 06:54:29;;;;;;;2.53;0.65;;;;;;;34.96;23.14;102131.34;5072556;28;20043;-73
2023/06/27 06:56:55;;;;;;;2.05;0.40;;;;;;;34.51;22.59;102134.63;5071801;28;20048;-74
2023/06/27 06:59:20;;;;;;;5.20;0.80;;;;;;;36.20;20.57;102135.78;5072116;28;20547;-73
2023/06/27 07:01:45;;;;;;;1.20;0.57;;;;;;;34.09;22.81;102121.28;5072049;28;20024;-73
2023/06/27 07:04:11;;;;;;;3.30;0.63;;;;;;;34.36;21.36;102125.19;5072033;28;20063;-73
2023/06/27 07:06:36;;;;;;;2.00;0.65;;;;;;;34.59;22.12;102134.78;5071931;28;20069;-73
2023/06/27 07:09:02;;;;;;;1.17;0.70;;;;;;;34.85;22.20;102128.81;5072607;28;20081;-73
2023/06/27 07:11:27;;;;;;;1.20;0.77;;;;;;;34.42;22.03;102121.94;5071920;28;20028;-73
2023/06/27 07:13:53;;;;;;;4.70;0.73;;;;;;;34.14;22.87;102127.13;5089969;28;20026;-73
2023/06/27 07:16:18;;;;;;;5.07;0.70;;;;;;;33.65;23.66;102130.53;5072336;28;20495;-73
2023/06/27 07:18:43;;;;;;;2.45;0.70;;;;;;;32.87;23.90;102138.16;5071757;28;20119;-73
2023/06/27 07:21:09;;;;;;;0.75;0.40;;;;;;;31.53;24.81;102133.69;5072660;28;20020;-73
2023/06/27 07:23:36;;;;;;;1.58;0.70;;;;;;;32.08;26.02;102132.94;5072298;28;20483;-72
2023/06/27 07:26:02;;;;;;;1.30;0.45;;;;;;;32.25;24.53;102132.44;5072035;28;20064;-73
2023/06/27 07:28:27;;;;;;;1.60;0.60;;;;;;;32.20;25.39;102125.69;5072181;28;20078;-73
2023/06/27 07:30:52;;;;;;;3.25;0.50;;;;;;;32.42;24.84;102130.19;5071862;28;20028;-73
2023/06/27 07:33:18;;;;;;;1.48;0.70;;;;;;;31.77;24.46;102130.88;5071972;28;20036;-74
2023/06/27 07:35:43;;;;;;;2.20;0.68;;;;;;;31.13;25.56;102126.00;5090234;28;20167;-73
2023/06/27 07:38:09;;;;;;;2.65;0.60;;;;;;;31.75;24.44;102131.97;5090467;28;20032;-73
2023/06/27 07:40:35;;;;;;;1.42;0.70;;;;;;;32.27;24.66;102127.78;5089594;28;20028;-73
2023/06/27 07:43:00;;;;;;;1.55;0.70;;;;;;;31.89;24.44;102133.56;5071943;28;20028;-73
2023/06/27 07:45:27;;;;;;;0.70;0.47;;;;;;;32.47;24.02;102127.97;5072226;28;20028;-73
2023/06/27 07:47:52;;;;;;;1.15;0.80;;;;;;;32.96;24.08;102131.97;5071490;28;20031;-73
2023/06/27 07:50:18;;;;;;;1.77;0.60;;;;;;;33.38;23.29;102119.41;5090650;28;20024;-74
2023/06/27 07:52:44;;;;;;;1.92;0.60;;;;;;;33.62;23.56;102125.38;5072179;28;20024;-73
2023/06/27 07:55:10;;;;;;;2.55;0.40;;;;;;;32.15;24.60;102128.78;5071357;28;20103;-73
2023/06/27 07:57:35;;;;;;;2.45;0.65;;;;;;;32.08;26.06;102127.53;5071902;28;20024;-72
2023/06/27 08:00:00;;;;;;;0.90;0.52;;;;;;;32.72;23.59;102134.06;5072218;28;20031;-74
2023/06/27 08:02:26;;;;;;;0.45;0.45;;;;;;;32.28;25.38;102136.75;5089712;28;20543;-73
2023/06/27 08:04:51;;;;;;;2.50;0.65;;;;;;;31.46;25.00;102143.22;5071593;28;20028;-74
2023/06/27 08:07:17;;;;;;;2.28;0.68;;;;;;;31.95;24.73;102133.94;5090255;28;20024;-73
2023/06/27 08:09:42;;;;;;;3.20;0.90;;;;;;;30.49;26.04;102138.00;5092629;28;20024;-73
2023/06/27 08:12:09;;;;;;;1.20;0.70;;;;;;;29.06;27.98;102136.34;5075875;28;20097;-72
2023/06/27 08:14:35;;;;;;;2.08;0.60;;;;;;;29.67;27.57;102140.28;5093278;28;20027;-73
2023/06/27 08:17:00;;;;;;;1.00;0.50;;;;;;;31.58;24.98;102131.47;5075460;28;20028;-73
2023/06/27 08:19:27;;;;;;;2.20;0.52;;;;;;;32.10;25.10;102131.81;5075900;28;20020;-73
2023/06/27 08:21:52;;;;;;;0.73;0.60;;;;;;;30.54;26.05;102129.53;5092631;28;20123;-72
2023/06/27 08:24:18;;;;;;;3.42;0.50;;;;;;;30.41;26.14;102132.28;5075965;28;20450;-73
2023/06/27 08:26:45;;;;;;;3.58;0.93;;;;;;;30.15;27.05;102129.66;5074971;28;20353;-72
2023/06/27 08:29:10;;;;;;;2.20;0.50;;;;;;;29.92;26.84;102140.31;5074535;28;20035;-74
2023/06/27 08:31:36;;;;;;;1.90;0.50;;;;;;;30.02;27.36;102129.72;5075328;28;20020;-73
2023/06/27 08:34:01;;;;;;;2.78;0.70;;;;;;;29.45;28.21;102136.41;5093393;28;20020;-74
2023/06/27 08:36:27;;;;;;;2.38;0.68;;;;;;;29.56;27.79;102128.44;5092960;28;20028;-72
2023/06/27 08:38:52;;;;;;;1.88;0.65;;;;;;;30.17;26.97;102130.44;5075397;28;20020;-72
2023/06/27 08:41:18;;;;;;;1.73;0.40;;;;;;;29.91;27.85;102135.88;5093234;28;20024;-72
2023/06/27 08:43:43;;;;;;;5.32;0.80;;;;;;;30.19;26.94;102136.56;5092481;28;20031;-72
2023/06/27 08:46:09;;;;;;;1.85;0.47;;;;;;;29.35;27.27;102132.66;5093240;28;20032;-72
2023/06/27 08:48:41;;;;;;;2.08;0.77;;;;;;;30.88;25.91;102133.25;5092899;28;20134;-73
2023/06/27 08:51:08;;;;;;;2.88;1.10;;;;;;;31.53;26.08;102130.09;5074612;28;20031;-72
2023/06/27 08:53:36;;;;;;;1.90;0.90;;;;;;;31.04;25.73;102132.13;5075363;28;20024;-73
2023/06/27 08:56:09;;;;;;;2.08;0.77;;;;;;;30.21;26.62;102129.22;5074511;28;20047;-73
2023/06/27 08:58:42;;;;;;;3.20;0.65;;;;;;;31.11;25.95;102138.75;5073950;28;20032;-72
2023/06/27 09:01:08;;;;;;;1.42;0.57;;;;;;;31.33;25.76;102127.16;5092903;28;20027;-72
2023/06/27 09:03:38;;;;;;;0.75;0.45;;;;;;;28.69;27.98;102138.00;5092861;28;20076;-72
2023/06/27 09:06:05;;;;;;;3.95;0.68;;;;;;;30.89;25.94;102134.97;5073885;28;20028;-72
2023/06/27 09:08:32;;;;;;;4.30;0.52;;;;;;;31.89;25.30;102134.44;5074788;28;20169;-72
2023/06/27 09:10:58;;;;;;;1.35;0.63;;;;;;;31.86;24.87;102139.22;5073302;28;20059;-73
2023/06/27 09:13:24;;;;;;;1.88;0.70;;;;;;;31.89;23.94;102147.09;5074532;28;20503;-73
2023/06/27 09:15:49;;;;;;;5.20;0.60;;;;;;;31.34;25.09;102139.69;5074127;28;20036;-73
2023/06/27 09:18:15;;;;;;;2.08;0.70;;;;;;;30.88;25.67;102138.66;5073720;28;20031;-72
2023/06/27 09:20:41;;;;;;;3.58;1.50;;;;;;;30.26;27.29;102154.00;5092488;28;20051;-72
2023/06/27 09:23:07;;;;;;;1.52;0.50;;;;;;;32.00;25.15;102147.09;5092058;28;20024;-73
2023/06/27 09:25:33;;;;;;;1.33;0.50;;;;;;;30.35;26.77;102147.09;5091882;28;20368;-74
2023/06/27 09:28:14;;;;;;;3.28;0.70;;;;;;;31.75;24.96;102148.19;5091841;28;20112;-73
2023/06/27 09:30:51;;;;;;;2.00;0.60;;;;;;;31.98;24.67;102140.94;5073826;28;20043;-73
2023/06/27 09:33:18;;;;;;;0.98;0.50;;;;;;;31.99;24.46;102144.53;5073284;28;20035;-73
2023/06/27 09:35:44;;;;;;;5.25;0.90;;;;;;;32.45;23.88;102135.34;5091409;28;20072;-74
2023/06/27 09:38:10;;;;;;;0.50;0.40;;;;;;;31.21;25.51;102139.75;5073833;28;20108;-74
2023/06/27 09:40:36;;;;;;;3.55;1.20;;;;;;;33.30;23.78;102137.22;5072884;28;20073;-73
2023/06/27 09:43:04;;;;;;;1.98;0.57;;;;;;;33.41;22.79;102127.25;5073965;28;20023;-73
2023/06/27 09:45:30;;;;;;;2.70;0.80;;;;;;;33.38;24.04;102128.38;5091589;28;20020;-73
2023/06/27 09:47:57;;;;;;;2.03;0.47;;;;;;;33.95;22.73;102127.94;5090841;28;20027;-73
2023/06/27 09:50:30;;;;;;;2.97;0.45;;;;;;;31.03;25.01;102138.50;5073514;28;20032;-73
2023/06/27 09:52:59;;;;;;;2.45;1.08;;;;;;;32.91;23.56;102145.03;5073265;28;20115;-73
2023/06/27 09:55:25;;;;;;;0.50;0.28;;;;;;;31.33;24.89;102148.75;5073489;28;20031;-73
2023/06/27 09:57:51;;;;;;;0.65;0.35;;;;;;;31.53;24.91;102155.28;5073490;28;20039;-74
2023/06/27 10:00:20;;;;;;;2.40;0.70;;;;;;;32.22;23.92;102151.63;5072679;28;20024;-74
2023/06/27 10:02:51;;;;;;;7.38;1.10;;;;;;;33.96;22.83;102138.66;5072776;28;20032;-74
2023/06/27 10:05:19;;;;;;;1.70;0.73;;;;;;;31.95;23.72;102149.31;5073552;28;20023;-75
2023/06/27 10:07:47;;;;;;;3.13;0.60;;;;;;;32.09;24.11;102146.31;5072452;28;20098;-73
2023/06/27 10:10:13;;;;;;;4.53;0.52;;;;;;;32.19;23.40;102146.50;5073573;28;20024;-74
2023/06/27 10:12:39;;;;;;;2.30;1.00;;;;;;;32.40;23.39;102145.69;5091089;28;20081;-74
2023/06/27 10:15:07;;;;;;;3.55;0.73;;;;;;;30.86;25.25;102146.00;5072555;28;20127;-73
2023/06/27 10:17:33;;;;;;;2.28;0.65;;;;;;;31.10;24.79;102147.84;5091117;28;20036;-74
2023/06/27 10:19:59;;;;;;;3.72;0.80;;;;;;;33.30;22.27;102137.22;5072715;28;20020;-73
2023/06/27 10:22:29;;;;;;;2.90;0.70;;;;;;;33.70;22.38;102126.53;5090409;28;20036;-74
2023/06/27 10:25:01;;;;;;;2.42;0.70;;;;;;;31.29;23.59;102145.41;5072816;28;20135;-74
2023/06/27 10:27:26;;;;;;;1.98;0.50;;;;;;;34.50;22.34;102130.22;5073020;28;20032;-73
2023/06/27 10:29:52;;;;;;;1.25;0.40;;;;;;;33.56;22.25;102120.50;5071900;28;20046;-73
2023/06/27 10:32:19;;;;;;;3.90;0.80;;;;;;;33.61;22.72;102131.78;5072866;28;20039;-74
2023/06/27 10:34:45;;;;;;;1.33;0.52;;;;;;;33.03;23.25;102142.25;5072640;28;20020;-73
2023/06/27 10:37:24;;;;;;;1.00;0.60;;;;;;;31.13;24.70;102148.47;5072221;28;20085;-73
2023/06/27 10:39:58;;;;;;;0.98;0.50;;;;;;;33.09;22.67;102149.88;5090714;28;20024;-74
2023/06/27 10:42:23;;;;;;;2.17;0.80;;;;;;;34.11;22.12;102158.09;5090557;28;20034;-75
2023/06/27 10:45:03;;;;;;;1.15;0.60;;;;;;;32.70;22.93;102149.53;5072612;28;20024;-73
2023/06/27 10:47:34;;;;;;;3.17;0.60;;;;;;;31.69;24.20;102141.44;5073038;28;20035;-74
2023/06/27 10:50:09;;;;;;;1.55;0.65;;;;;;;32.02;23.99;102138.84;5072213;28;20031;-73
2023/06/27 10:52:35;;;;;;;2.72;0.80;;;;;;;29.79;26.31;102147.50;5072470;28;20036;-74
2023/06/27 10:55:18;;;;;;;3.70;1.10;;;;;;;30.84;24.82;102149.81;5072882;28;20127;-73
2023/06/27 10:57:44;;;;;;;;;;;;;;;32.69;23.33;102137.00;5072369;28;20035;-73
2023/06/27 11:00:40;;;;;;;1.38;0.60;;;;;;;32.75;22.54;102141.91;5072937;28;19977;-73
2023/06/27 11:03:06;;;;;;;4.05;0.60;;;;;;;31.61;23.01;102136.66;5071459;28;20036;-74
2023/06/27 11:05:43;;;;;;;1.27;0.95;;;;;;;32.06;22.91;102140.31;5090224;28;20103;-74
2023/06/27 11:08:12;;;;;;;3.42;0.68;;;;;;;31.63;22.61;102145.50;5072744;28;20020;-76
2023/06/27 11:10:51;;;;;;;1.88;0.70;;;;;;;32.53;22.44;102153.66;5071300;28;20027;-75
2023/06/27 11:13:22;;;;;;;3.70;0.82;;;;;;;31.78;23.54;102147.97;5072678;28;20141;-73
2023/06/27 11:15:49;;;;;;;3.42;1.05;;;;;;;31.86;24.31;102148.22;5072355;28;20031;-74
2023/06/27 11:18:16;;;;;;;2.03;0.60;;;;;;;32.20;23.12;102161.69;5071817;28;20036;-74
2023/06/27 11:20:42;;;;;;;2.83;0.65;;;;;;;32.07;23.44;102147.47;5090291;28;20067;-73
2023/06/27 11:23:08;;;;;;;1.02;0.52;;;;;;;33.46;22.59;102135.84;5072155;28;20027;-74